No requiere especial atencion con respecto al clima.   -   No hay Alarmas

Nearby METAR Reports

 

KSJC - San Jose, California, USA
Distance from station: NE 14km
Actualización: 26/09/2018 05:53
Despejado
Despejado
 Viento del N
Viento: N 6 km/h
Temperatura: 18°C
Rocío: 13°C
Humedad: 73%
Barómetro: 1013.9 hPa
Clouds: Despejado
Visibility: 16 km
2018/09/26 03:53 KSJC 260353Z 35003KT 10SM CLR 18/13 A2994 RMK AO2 SLP138 T01780133
KNUQ - Moffett Nas/Mtn, California, USA
Distance from station: N 14km
Actualización: 26/09/2018 05:56
Despejado
Despejado
 Viento del ONO
Viento: ONO 6 km/h
Temperatura: 17°C
Rocío: 14°C
Humedad: 83%
Barómetro: 1014.2 hPa
Clouds: Despejado
Visibility: 16 km
2018/09/26 03:56 KNUQ 260356Z 30003KT 10SM CLR 17/14 A2995 RMK AO2 SLP143 T01670139 $
 
KPAO - Palo Alto, California, USA
Distance from station: NNO 23km
Actualización: 26/09/2018 05:47
Despejado
Despejado
 Viento del calm
Viento: Calma
Temperatura: 16°C
Rocío: 13°C
Humedad: 83%
Barómetro: 1014.2 hPa
Clouds: Despejado
Visibility: 16 km
2018/09/26 03:47 KPAO 260347Z 00000KT 10SM SKC 16/13 A2995 RMK LAST
KRHV - San Jose/Reid, California, USA
Distance from station: ENE 19km
Actualización: 26/09/2018 05:57
Despejado
Despejado
 Viento del NO
Viento: NO 9 km/h
Temperatura: 18°C
Rocío: 14°C
Humedad: 78%
Barómetro: 1013.5 hPa
Clouds: Despejado
Visibility: 16 km
2018/09/26 03:57 KRHV 260357Z 32005KT 10SM SKC 18/14 A2993
 
KOAK - Oakland, California, USA
Distance from station: NNO 50km
Actualización: 26/09/2018 05:53
Few Clouds
Few Clouds
 Viento del ONO
Viento: ONO 11 km/h
Temperatura: 14°C
Rocío: 13°C
Humedad: 94%
Barómetro: 1014.2 hPa
Clouds: Few Clouds
Visibility: 16 km
Cloud details: Few Clouds 213 m
2018/09/26 03:53 KOAK 260353Z 30006KT 10SM FEW007 14/13 A2995 RMK AO2 SLP141 T01390128
KSQL - San Carlos Airpo, California, USA
Distance from station: NO 34km
Actualización: 26/09/2018 06:15
Despejado
Despejado
 Viento del calm
Viento: Calma
Temperatura: 16°C
Rocío: 12°C
Humedad: 77%
Barómetro: 1014.2 hPa
Clouds: Despejado
Visibility: 16 km
2018/09/26 04:15 KSQL 260415Z AUTO 00000KT 10SM CLR 16/12 A2995 RMK AO2
 
KSFO - San Francisco, California, USA
Distance from station: NO 49km
Actualización: 26/09/2018 05:56
Few Clouds
Few Clouds
 Viento del O
Viento: O 19 km/h
Temperatura: 13°C
Rocío: 11°C
Humedad: 88%
Barómetro: 1013.5 hPa
Clouds: Few Clouds
Visibility: 16 km
Cloud details: Few Clouds 183 m
2018/09/26 03:56 KSFO 260356Z 28010KT 10SM FEW006 13/11 A2993 RMK AO2 SLP135 T01330106
KE16 - San Martin, California, USA
Distance from station: ESE 43km
Actualización: 26/09/2018 06:15
Few Clouds
Few Clouds
 Viento del SE
Viento: SE 6 km/h
Temperatura: 16°C
Rocío: 10°C
Humedad: 68%
Barómetro: 1014.9 hPa
Clouds: Few Clouds
Visibility: 16 km
Cloud details: Few Clouds 549 m
2018/09/26 04:15 KE16 260415Z AUTO 13003KT 10SM FEW018 16/10 A2997 RMK AO2
 
KWVI - Watsonville, California, USA
Distance from station: SSE 44km
Actualización: 26/09/2018 05:53
Mist, Cubierto
Mist, Cubierto
 Viento del O
Viento: O 6 km/h
Temperatura: 11°C
Rocío: 11°C
Humedad: 100%
Barómetro: 1014.9 hPa
Resumen: Mist
Clouds: Cubierto
Visibility: 2 km
Cloud details: Cubierto 91 m
2018/09/26 03:53 KWVI 260353Z AUTO 27003KT 1 1/2SM BR OVC003 11/11 A2997 RMK AO2 SLP148 T01110111
KHAF - Half Moon Bay, California, USA
Distance from station: ONO 50km
Actualización: 26/09/2018 06:15
Mist, Cubierto
Mist, Cubierto
 Viento del S
Viento: S 7 km/h
Temperatura: 12°C
Rocío: 12°C
Humedad: 100%
Barómetro: 1015.2 hPa
Resumen: Mist
Clouds: Cubierto
Visibility: 5 km
Cloud details: Cubierto 91 m
2018/09/26 04:15 KHAF 260415Z AUTO 17004KT 3/4SM BR OVC003 12/12 A2998 RMK AO2
 
KHWD - Hayward, California, USA
Distance from station: N 44km
Actualización: 26/09/2018 05:54
Despejado
Despejado
 Viento del NO
Viento: NO 7 km/h
Temperatura: 16°C
Rocío: 11°C
Humedad: 72%
Barómetro: 1013.9 hPa
Clouds: Despejado
Visibility: 16 km
2018/09/26 03:54 KHWD 260354Z 31004KT 10SM CLR 16/11 A2994 RMK AO2 SLP149 T01610111
KLVK - Livermore, California, USA
Distance from station: NNE 51km
Actualización: 26/09/2018 05:53
Despejado
Despejado
 Viento del calm
Viento: Calma
Temperatura: 21°C
Rocío: 8°C
Humedad: 43%
Barómetro: 1012.9 hPa
Clouds: Despejado
Visibility: 16 km
2018/09/26 03:53 KLVK 260353Z AUTO 00000KT 10SM CLR 21/08 A2991 RMK AO2 SLP127 T02110083